createdAt,value
2023-02-14T00:00:38.617Z,95
2023-02-14T00:05:40.429Z,95
2023-02-14T00:10:42.388Z,95
2023-02-14T00:15:44.425Z,95
2023-02-14T00:20:46.322Z,94
2023-02-14T00:25:47.891Z,94
2023-02-14T00:30:49.196Z,94
2023-02-14T00:35:51.073Z,94
2023-02-14T00:40:52.514Z,95
2023-02-14T00:45:54.417Z,94
2023-02-14T00:50:55.672Z,95
2023-02-14T00:55:57.578Z,95
2023-02-14T01:00:59.814Z,96
2023-02-14T01:06:01.385Z,97
2023-02-14T01:11:03.132Z,96
2023-02-14T01:16:04.934Z,96
2023-02-14T01:21:06.958Z,96
2023-02-14T01:26:08.226Z,97
2023-02-14T01:31:10.277Z,97
2023-02-14T01:36:11.757Z,97
2023-02-14T01:41:13.770Z,97
2023-02-14T01:46:15.855Z,98
2023-02-14T01:51:17.545Z,98
2023-02-14T01:56:18.922Z,97
2023-02-14T02:01:20.468Z,98
2023-02-14T02:06:22.137Z,98
2023-02-14T02:11:23.755Z,97
2023-02-14T02:16:25.629Z,97
2023-02-14T02:21:27.476Z,97
2023-02-14T02:26:29.243Z,97
2023-02-14T02:31:30.979Z,98
2023-02-14T02:36:32.545Z,98
2023-02-14T02:41:34.205Z,98
2023-02-14T02:46:36.004Z,98
2023-02-14T02:51:37.281Z,99
2023-02-14T02:56:39.378Z,98
2023-02-14T03:01:41.486Z,97
2023-02-14T03:06:43.015Z,97
2023-02-14T03:11:44.337Z,98
2023-02-14T03:16:46.575Z,98
2023-02-14T03:21:48.215Z,98
2023-02-14T03:26:49.757Z,98
2023-02-14T03:31:51.840Z,97
2023-02-14T03:36:52.876Z,96
2023-02-14T03:41:54.712Z,96
2023-02-14T03:46:56.022Z,96
2023-02-14T03:51:57.621Z,97
2023-02-14T03:56:59.569Z,97
2023-02-14T04:02:01.739Z,97
2023-02-14T04:07:03.613Z,97
2023-02-14T04:12:04.937Z,97
2023-02-14T04:17:06.715Z,97
2023-02-14T04:22:07.893Z,98
2023-02-14T04:27:09.538Z,97
2023-02-14T04:32:11.041Z,97
2023-02-14T04:37:12.275Z,97
2023-02-14T04:42:13.949Z,97
2023-02-14T04:47:15.945Z,96
2023-02-14T04:52:17.661Z,96
2023-02-14T04:57:19.616Z,96
2023-02-14T05:02:21.328Z,96
2023-02-14T05:07:23.392Z,96
2023-02-14T05:12:25.502Z,96
2023-02-14T05:17:26.781Z,96
2023-02-14T05:22:28.494Z,96
2023-02-14T05:27:30.199Z,95
2023-02-14T05:32:31.592Z,95
2023-02-14T05:32:37.904Z,96
2023-02-14T05:37:39.270Z,96
2023-02-14T05:42:40.752Z,96
2023-02-14T05:47:42.624Z,96
2023-02-14T05:52:44.579Z,95
2023-02-14T05:57:45.785Z,94
2023-02-14T06:02:47.422Z,93
2023-02-14T06:07:49.117Z,93
2023-02-14T06:12:50.327Z,93
2023-02-14T06:17:51.635Z,92
2023-02-14T06:22:53.598Z,93
2023-02-14T06:27:55.062Z,94
2023-02-14T06:32:57.109Z,94
2023-02-14T06:37:58.925Z,94
2023-02-14T06:43:00.353Z,94
2023-02-14T06:48:01.876Z,94
2023-02-14T06:53:03.314Z,94
2023-02-14T06:58:04.893Z,93
2023-02-14T07:03:06.699Z,93
2023-02-14T07:08:08.712Z,93
2023-02-14T07:13:10.496Z,93
2023-02-14T07:18:11.579Z,93
2023-02-14T07:23:13.320Z,94
2023-02-14T07:28:15.042Z,94
2023-02-14T07:33:16.813Z,95
2023-02-14T07:38:18.703Z,95
2023-02-14T07:43:20.266Z,96
2023-02-14T07:48:21.914Z,96
2023-02-14T07:53:23.758Z,97
2023-02-14T07:58:25.307Z,100
2023-02-14T08:03:27.125Z,100
2023-02-14T08:08:28.758Z,95
2023-02-14T08:13:30.806Z,89
2023-02-14T08:18:32.416Z,89
2023-02-14T08:23:34.297Z,88
2023-02-14T08:28:35.665Z,88
2023-02-14T08:33:37.793Z,87
2023-02-14T08:38:39.088Z,88
2023-02-14T08:43:40.692Z,88
2023-02-14T08:48:42.223Z,88
2023-02-14T08:53:44.352Z,88
2023-02-14T08:58:45.817Z,87
2023-02-14T09:03:47.949Z,88
2023-02-14T09:08:49.635Z,87
2023-02-14T09:13:51.350Z,86
2023-02-14T09:18:53.234Z,87
2023-02-14T09:23:54.931Z,87
2023-02-14T09:28:56.779Z,87
2023-02-14T09:33:58.773Z,86
2023-02-14T09:39:00.467Z,86
2023-02-14T09:44:01.508Z,87
2023-02-14T09:49:03.351Z,86
2023-02-14T09:54:05.103Z,86
2023-02-14T09:59:06.520Z,85
2023-02-14T10:04:08.011Z,85
2023-02-14T10:09:09.717Z,84
2023-02-14T10:14:11.378Z,83
2023-02-14T10:19:13.483Z,83
2023-02-14T10:24:15.027Z,83
2023-02-14T10:29:16.948Z,83
2023-02-14T10:34:18.669Z,84
2023-02-14T10:39:20.003Z,83
2023-02-14T10:44:21.596Z,83
2023-02-14T10:49:23.449Z,83
2023-02-14T10:54:25.077Z,83
2023-02-14T10:59:27.011Z,83
2023-02-14T11:04:28.499Z,81
2023-02-14T11:09:30.099Z,82
2023-02-14T11:14:31.972Z,83
2023-02-14T11:19:34.583Z,85
2023-02-14T11:24:35.701Z,86
2023-02-14T11:29:37.116Z,86
2023-02-14T11:34:38.762Z,86
2023-02-14T11:39:40.938Z,86
2023-02-14T11:44:43.009Z,84
2023-02-14T11:49:44.307Z,84
2023-02-14T11:54:46.254Z,84
2023-02-14T11:59:47.558Z,85
2023-02-14T12:04:49.370Z,83
2023-02-14T12:09:50.747Z,83
2023-02-14T12:14:52.258Z,83
2023-02-14T12:19:53.778Z,82
2023-02-14T12:24:55.447Z,83
2023-02-14T12:29:57.301Z,82
2023-02-14T12:34:58.944Z,81
2023-02-14T12:40:00.649Z,80
2023-02-14T12:50:03.812Z,79
2023-02-14T12:55:05.794Z,79
2023-02-14T13:00:07.589Z,79
2023-02-14T13:10:10.995Z,79
2023-02-14T13:25:16.411Z,78
2023-02-14T13:30:18.538Z,78
2023-02-14T13:35:20.395Z,78
2023-02-14T13:40:22.468Z,79
2023-02-14T13:45:23.766Z,79
2023-02-14T13:50:25.115Z,81
2023-02-14T13:55:27.079Z,82
2023-02-14T14:00:28.453Z,82
2023-02-14T14:05:29.695Z,82
2023-02-14T14:10:31.089Z,85
2023-02-14T14:15:32.900Z,84
2023-02-14T14:20:35.043Z,84
2023-02-14T14:25:36.687Z,84
2023-02-14T14:30:38.468Z,85
2023-02-14T14:35:40.136Z,86
2023-02-14T14:40:42.257Z,85
2023-02-14T14:45:43.538Z,86
2023-02-14T14:50:44.722Z,86
2023-02-14T14:55:46.948Z,87
2023-02-14T15:00:48.590Z,87
2023-02-14T15:05:50.660Z,88
2023-02-14T15:10:52.797Z,88
2023-02-14T15:15:54.684Z,87
2023-02-14T15:20:56.403Z,87
2023-02-14T15:25:58.338Z,87
2023-02-14T15:31:00.456Z,88
2023-02-14T15:36:01.321Z,88
2023-02-14T15:41:03.155Z,89
2023-02-14T15:46:05.319Z,88
2023-02-14T15:51:06.965Z,87
2023-02-14T15:56:08.990Z,88
2023-02-14T16:01:10.581Z,88
2023-02-14T16:06:12.181Z,89
2023-02-14T16:11:14.004Z,89
2023-02-14T16:16:15.283Z,97
2023-02-14T16:21:16.970Z,92
2023-02-14T16:26:19.150Z,79
2023-02-14T16:31:20.831Z,78
2023-02-14T16:36:21.927Z,79
2023-02-14T16:41:23.436Z,81
2023-02-14T16:46:25.154Z,82
2023-02-14T16:51:26.673Z,83
2023-02-14T16:56:28.365Z,85
2023-02-14T17:01:30.039Z,86
2023-02-14T17:06:31.832Z,86
2023-02-14T17:11:33.892Z,86
2023-02-14T17:16:35.937Z,88
2023-02-14T17:21:38.076Z,90
2023-02-14T17:26:39.472Z,90
2023-02-14T17:31:40.912Z,90
2023-02-14T17:36:42.081Z,89
2023-02-14T17:41:43.604Z,89
2023-02-14T17:46:45.673Z,90
2023-02-14T17:51:47.309Z,91
2023-02-14T17:56:48.870Z,92
2023-02-14T18:01:50.948Z,92
2023-02-14T18:06:52.219Z,92
2023-02-14T18:11:54.084Z,92
2023-02-14T18:16:56.060Z,92
2023-02-14T18:21:57.378Z,93
2023-02-14T18:26:59.095Z,94
2023-02-14T18:32:00.750Z,95
2023-02-14T18:37:02.635Z,96
2023-02-14T18:42:04.209Z,96
2023-02-14T18:47:05.452Z,96
2023-02-14T18:52:06.628Z,97
2023-02-14T18:57:08.500Z,97
2023-02-14T19:02:10.128Z,97
2023-02-14T19:07:12.133Z,97
2023-02-14T19:12:13.897Z,97
2023-02-14T19:17:15.843Z,97
2023-02-14T19:22:17.602Z,97
2023-02-14T19:27:19.455Z,97
2023-02-14T19:32:20.801Z,98
2023-02-14T19:37:22.858Z,98
2023-02-14T19:42:25.019Z,98
2023-02-14T19:47:39.768Z,98
2023-02-14T19:52:27.839Z,99
2023-02-14T19:57:30.113Z,99
2023-02-14T20:02:32.120Z,100
2023-02-14T20:07:33.459Z,100
2023-02-14T20:12:34.835Z,100
2023-02-14T20:17:36.504Z,100
2023-02-14T20:22:38.123Z,100
2023-02-14T20:27:40.046Z,99
2023-02-14T20:32:41.896Z,99
2023-02-14T20:37:43.738Z,98
2023-02-14T20:42:45.299Z,97
2023-02-14T20:47:47.080Z,98
2023-02-14T20:52:48.404Z,99
2023-02-14T20:57:50.156Z,100
2023-02-14T21:02:51.785Z,100
2023-02-14T21:07:53.452Z,100
2023-02-14T21:12:55.543Z,100
2023-02-14T21:17:57.272Z,100
2023-02-14T21:22:59.090Z,100
2023-02-14T21:28:00.407Z,99
2023-02-14T21:33:02.124Z,99
2023-02-14T21:38:03.299Z,99
2023-02-14T21:43:04.722Z,99
2023-02-14T21:48:06.407Z,99
2023-02-14T21:53:07.666Z,99
2023-02-14T21:58:09.256Z,98
2023-02-14T22:03:12.310Z,99
2023-02-14T22:08:12.588Z,99
2023-02-14T22:13:14.642Z,100
2023-02-14T22:18:15.877Z,100
2023-02-14T22:23:24.598Z,100
2023-02-14T22:28:24.986Z,100
2023-02-14T22:33:26.289Z,100
2023-02-14T22:38:27.645Z,100
2023-02-14T22:43:28.763Z,100
2023-02-14T22:48:30.657Z,99
2023-02-14T22:53:31.863Z,100
2023-02-14T22:58:33.174Z,100
2023-02-14T23:13:37.767Z,98
2023-02-14T23:18:38.853Z,98
2023-02-14T23:23:40.748Z,98
2023-02-14T23:28:42.466Z,99
2023-02-14T23:33:43.616Z,99
2023-02-14T23:38:45.390Z,99
2023-02-14T23:43:47.153Z,100
2023-02-14T23:48:49.109Z,99
2023-02-14T23:53:50.325Z,99
2023-02-14T23:58:51.625Z,98
